sensor_id;sensor_type;location;lat;lon;timestamp;P1;durP1;ratioP1;P2;durP2;ratioP2
81912;SDS011;71377;50.698;7.164;2024-03-23T00:53:49;20.33;;;8.45;;
81912;SDS011;71377;50.698;7.164;2024-03-23T00:56:15;17.92;;;8.50;;
81912;SDS011;71377;50.698;7.164;2024-03-23T00:58:40;15.07;;;7.88;;
81912;SDS011;71377;50.698;7.164;2024-03-23T01:01:06;18.38;;;8.77;;
81912;SDS011;71377;50.698;7.164;2024-03-23T01:03:31;19.35;;;8.60;;
81912;SDS011;71377;50.698;7.164;2024-03-23T01:06:00;18.60;;;8.73;;
81912;SDS011;71377;50.698;7.164;2024-03-23T01:08:26;17.45;;;9.65;;
81912;SDS011;71377;50.698;7.164;2024-03-23T01:10:58;18.85;;;10.25;;
81912;SDS011;71377;50.698;7.164;2024-03-23T01:13:25;20.13;;;10.07;;
81912;SDS011;71377;50.698;7.164;2024-03-23T01:15:51;22.27;;;10.93;;
81912;SDS011;71377;50.698;7.164;2024-03-23T01:18:17;18.88;;;9.90;;
81912;SDS011;71377;50.698;7.164;2024-03-23T01:20:43;24.27;;;11.77;;
81912;SDS011;71377;50.698;7.164;2024-03-23T01:23:10;24.02;;;11.15;;
81912;SDS011;71377;50.698;7.164;2024-03-23T01:25:35;25.65;;;10.30;;
81912;SDS011;71377;50.698;7.164;2024-03-23T01:28:01;18.45;;;9.80;;
81912;SDS011;71377;50.698;7.164;2024-03-23T01:30:26;19.05;;;9.90;;
81912;SDS011;71377;50.698;7.164;2024-03-23T01:32:52;18.02;;;8.80;;
81912;SDS011;71377;50.698;7.164;2024-03-23T01:35:17;16.00;;;8.27;;
81912;SDS011;71377;50.698;7.164;2024-03-23T01:37:43;14.45;;;7.45;;
81912;SDS011;71377;50.698;7.164;2024-03-23T01:40:08;16.08;;;6.50;;
81912;SDS011;71377;50.698;7.164;2024-03-23T01:42:34;11.32;;;6.90;;
81912;SDS011;71377;50.698;7.164;2024-03-23T01:45:00;14.75;;;6.97;;
81912;SDS011;71377;50.698;7.164;2024-03-23T01:47:25;14.40;;;7.65;;
81912;SDS011;71377;50.698;7.164;2024-03-23T01:49:51;14.38;;;7.63;;
81912;SDS011;71377;50.698;7.164;2024-03-23T01:52:17;18.70;;;8.05;;
81912;SDS011;71377;50.698;7.164;2024-03-23T01:54:43;14.23;;;8.02;;
81912;SDS011;71377;50.698;7.164;2024-03-23T01:57:09;16.33;;;7.95;;
81912;SDS011;71377;50.698;7.164;2024-03-23T01:59:35;14.40;;;6.80;;
81912;SDS011;71377;50.698;7.164;2024-03-23T02:02:01;12.70;;;7.03;;
81912;SDS011;71377;50.698;7.164;2024-03-23T02:04:26;16.65;;;7.20;;
81912;SDS011;71377;50.698;7.164;2024-03-23T02:06:52;13.05;;;6.75;;
81912;SDS011;71377;50.698;7.164;2024-03-23T02:09:17;12.07;;;6.78;;
81912;SDS011;71377;50.698;7.164;2024-03-23T02:11:43;11.80;;;6.30;;
81912;SDS011;71377;50.698;7.164;2024-03-23T02:14:08;7.65;;;4.95;;
81912;SDS011;71377;50.698;7.164;2024-03-23T02:16:34;11.65;;;5.90;;
81912;SDS011;71377;50.698;7.164;2024-03-23T02:18:59;11.68;;;6.28;;
81912;SDS011;71377;50.698;7.164;2024-03-23T02:21:26;13.13;;;6.35;;
81912;SDS011;71377;50.698;7.164;2024-03-23T02:23:52;16.67;;;7.22;;
81912;SDS011;71377;50.698;7.164;2024-03-23T02:26:18;15.70;;;7.45;;
81912;SDS011;71377;50.698;7.164;2024-03-23T02:28:43;12.65;;;7.78;;
81912;SDS011;71377;50.698;7.164;2024-03-23T02:31:09;12.52;;;7.13;;
81912;SDS011;71377;50.698;7.164;2024-03-23T02:33:34;7.90;;;5.28;;
81912;SDS011;71377;50.698;7.164;2024-03-23T02:36:03;11.32;;;5.45;;
81912;SDS011;71377;50.698;7.164;2024-03-23T02:38:29;8.48;;;5.22;;
81912;SDS011;71377;50.698;7.164;2024-03-23T02:40:54;9.70;;;4.75;;
81912;SDS011;71377;50.698;7.164;2024-03-23T02:43:20;7.53;;;5.40;;
81912;SDS011;71377;50.698;7.164;2024-03-23T02:45:45;8.27;;;3.50;;
81912;SDS011;71377;50.698;7.164;2024-03-23T02:48:11;7.07;;;4.50;;
81912;SDS011;71377;50.698;7.164;2024-03-23T02:50:36;9.00;;;4.68;;
81912;SDS011;71377;50.698;7.164;2024-03-23T02:53:02;6.95;;;4.53;;
81912;SDS011;71377;50.698;7.164;2024-03-23T02:55:27;9.73;;;5.32;;
81912;SDS011;71377;50.698;7.164;2024-03-23T02:57:53;10.38;;;5.05;;
81912;SDS011;71377;50.698;7.164;2024-03-23T03:00:18;6.47;;;3.88;;
81912;SDS011;71377;50.698;7.164;2024-03-23T03:02:44;7.55;;;4.07;;
81912;SDS011;71377;50.698;7.164;2024-03-23T03:05:09;7.32;;;4.72;;
81912;SDS011;71377;50.698;7.164;2024-03-23T03:07:36;9.23;;;4.18;;
81912;SDS011;71377;50.698;7.164;2024-03-23T03:10:04;8.40;;;3.95;;
81912;SDS011;71377;50.698;7.164;2024-03-23T03:12:35;4.72;;;3.55;;
81912;SDS011;71377;50.698;7.164;2024-03-23T03:15:01;9.35;;;4.07;;
81912;SDS011;71377;50.698;7.164;2024-03-23T03:17:26;8.73;;;3.65;;
81912;SDS011;71377;50.698;7.164;2024-03-23T03:19:51;6.72;;;3.63;;
81912;SDS011;71377;50.698;7.164;2024-03-23T03:22:21;8.05;;;3.88;;
81912;SDS011;71377;50.698;7.164;2024-03-23T03:24:47;7.15;;;3.58;;
81912;SDS011;71377;50.698;7.164;2024-03-23T03:27:12;5.80;;;3.03;;
81912;SDS011;71377;50.698;7.164;2024-03-23T03:29:38;8.07;;;3.80;;
81912;SDS011;71377;50.698;7.164;2024-03-23T03:32:03;6.55;;;3.28;;
81912;SDS011;71377;50.698;7.164;2024-03-23T03:34:29;7.57;;;3.00;;
81912;SDS011;71377;50.698;7.164;2024-03-23T03:36:55;6.72;;;2.60;;
81912;SDS011;71377;50.698;7.164;2024-03-23T03:39:21;5.93;;;2.30;;
81912;SDS011;71377;50.698;7.164;2024-03-23T03:41:48;7.93;;;2.47;;
81912;SDS011;71377;50.698;7.164;2024-03-23T03:44:14;5.97;;;2.22;;
81912;SDS011;71377;50.698;7.164;2024-03-23T03:46:39;6.47;;;2.20;;
81912;SDS011;71377;50.698;7.164;2024-03-23T03:49:05;8.23;;;2.38;;
81912;SDS011;71377;50.698;7.164;2024-03-23T03:51:30;6.70;;;2.55;;
81912;SDS011;71377;50.698;7.164;2024-03-23T03:53:56;4.45;;;2.25;;
81912;SDS011;71377;50.698;7.164;2024-03-23T03:56:21;8.38;;;2.20;;
81912;SDS011;71377;50.698;7.164;2024-03-23T03:58:48;4.63;;;2.67;;
81912;SDS011;71377;50.698;7.164;2024-03-23T04:01:14;8.13;;;2.70;;
81912;SDS011;71377;50.698;7.164;2024-03-23T04:03:39;7.13;;;2.55;;
81912;SDS011;71377;50.698;7.164;2024-03-23T04:06:09;6.45;;;2.47;;
81912;SDS011;71377;50.698;7.164;2024-03-23T04:08:34;10.13;;;3.38;;
81912;SDS011;71377;50.698;7.164;2024-03-23T04:11:00;6.03;;;2.35;;
81912;SDS011;71377;50.698;7.164;2024-03-23T04:13:26;6.97;;;2.85;;
81912;SDS011;71377;50.698;7.164;2024-03-23T04:15:55;7.90;;;2.72;;
81912;SDS011;71377;50.698;7.164;2024-03-23T04:18:21;8.18;;;2.78;;
81912;SDS011;71377;50.698;7.164;2024-03-23T04:20:51;6.78;;;2.53;;
81912;SDS011;71377;50.698;7.164;2024-03-23T04:23:17;7.43;;;2.38;;
81912;SDS011;71377;50.698;7.164;2024-03-23T04:25:42;10.70;;;2.38;;
81912;SDS011;71377;50.698;7.164;2024-03-23T04:28:08;9.27;;;2.75;;
81912;SDS011;71377;50.698;7.164;2024-03-23T04:30:34;8.52;;;2.03;;
81912;SDS011;71377;50.698;7.164;2024-03-23T04:32:59;7.95;;;2.60;;
81912;SDS011;71377;50.698;7.164;2024-03-23T04:35:26;10.40;;;3.05;;
81912;SDS011;71377;50.698;7.164;2024-03-23T04:37:52;6.63;;;2.45;;
81912;SDS011;71377;50.698;7.164;2024-03-23T04:40:19;7.40;;;2.47;;
81912;SDS011;71377;50.698;7.164;2024-03-23T04:42:44;9.65;;;2.60;;
81912;SDS011;71377;50.698;7.164;2024-03-23T04:45:10;7.72;;;2.67;;
81912;SDS011;71377;50.698;7.164;2024-03-23T04:47:37;6.38;;;2.78;;
81912;SDS011;71377;50.698;7.164;2024-03-23T04:50:03;10.90;;;3.10;;
81912;SDS011;71377;50.698;7.164;2024-03-23T04:52:29;8.32;;;2.90;;
81912;SDS011;71377;50.698;7.164;2024-03-23T04:54:55;8.90;;;2.10;;
81912;SDS011;71377;50.698;7.164;2024-03-23T04:57:20;8.52;;;2.40;;
81912;SDS011;71377;50.698;7.164;2024-03-23T04:59:46;7.90;;;1.73;;
81912;SDS011;71377;50.698;7.164;2024-03-23T05:02:12;7.80;;;2.25;;
81912;SDS011;71377;50.698;7.164;2024-03-23T05:04:38;10.57;;;2.00;;
81912;SDS011;71377;50.698;7.164;2024-03-23T05:07:05;9.98;;;2.15;;
81912;SDS011;71377;50.698;7.164;2024-03-23T05:09:31;7.82;;;2.08;;
81912;SDS011;71377;50.698;7.164;2024-03-23T05:11:58;8.07;;;2.28;;
81912;SDS011;71377;50.698;7.164;2024-03-23T05:14:25;11.27;;;3.03;;
81912;SDS011;71377;50.698;7.164;2024-03-23T05:16:52;10.05;;;3.00;;
81912;SDS011;71377;50.698;7.164;2024-03-23T05:19:17;11.77;;;2.38;;
81912;SDS011;71377;50.698;7.164;2024-03-23T05:21:43;8.10;;;2.10;;
81912;SDS011;71377;50.698;7.164;2024-03-23T05:24:08;11.48;;;2.20;;
81912;SDS011;71377;50.698;7.164;2024-03-23T05:26:34;8.13;;;2.55;;
81912;SDS011;71377;50.698;7.164;2024-03-23T05:29:01;8.27;;;2.40;;
81912;SDS011;71377;50.698;7.164;2024-03-23T05:31:27;6.63;;;2.17;;
81912;SDS011;71377;50.698;7.164;2024-03-23T05:33:54;7.65;;;2.22;;
81912;SDS011;71377;50.698;7.164;2024-03-23T05:36:20;8.52;;;2.10;;
81912;SDS011;71377;50.698;7.164;2024-03-23T05:38:45;12.40;;;2.60;;
81912;SDS011;71377;50.698;7.164;2024-03-23T05:41:11;7.45;;;2.40;;
81912;SDS011;71377;50.698;7.164;2024-03-23T05:43:37;8.85;;;2.53;;
81912;SDS011;71377;50.698;7.164;2024-03-23T05:46:03;4.20;;;1.77;;
81912;SDS011;71377;50.698;7.164;2024-03-23T05:48:30;8.57;;;2.00;;
81912;SDS011;71377;50.698;7.164;2024-03-23T05:50:56;10.10;;;1.80;;
81912;SDS011;71377;50.698;7.164;2024-03-23T05:53:22;5.63;;;2.00;;
81912;SDS011;71377;50.698;7.164;2024-03-23T05:55:48;11.48;;;2.30;;
81912;SDS011;71377;50.698;7.164;2024-03-23T05:58:15;8.40;;;2.47;;
81912;SDS011;71377;50.698;7.164;2024-03-23T06:00:41;9.15;;;2.38;;
81912;SDS011;71377;50.698;7.164;2024-03-23T06:03:10;6.38;;;2.53;;
81912;SDS011;71377;50.698;7.164;2024-03-23T06:05:36;5.32;;;1.80;;
81912;SDS011;71377;50.698;7.164;2024-03-23T06:08:02;7.68;;;1.95;;
81912;SDS011;71377;50.698;7.164;2024-03-23T06:10:28;8.98;;;2.40;;
81912;SDS011;71377;50.698;7.164;2024-03-23T06:12:53;9.63;;;2.20;;
81912;SDS011;71377;50.698;7.164;2024-03-23T06:15:19;12.02;;;2.50;;
81912;SDS011;71377;50.698;7.164;2024-03-23T06:17:45;5.90;;;1.88;;
81912;SDS011;71377;50.698;7.164;2024-03-23T06:20:10;7.97;;;2.60;;
81912;SDS011;71377;50.698;7.164;2024-03-23T06:22:36;7.30;;;2.10;;
81912;SDS011;71377;50.698;7.164;2024-03-23T06:25:02;10.00;;;2.33;;
81912;SDS011;71377;50.698;7.164;2024-03-23T06:27:27;9.45;;;2.53;;
81912;SDS011;71377;50.698;7.164;2024-03-23T06:29:53;10.20;;;1.80;;
81912;SDS011;71377;50.698;7.164;2024-03-23T06:32:18;12.68;;;2.40;;
81912;SDS011;71377;50.698;7.164;2024-03-23T06:34:44;13.48;;;2.80;;
81912;SDS011;71377;50.698;7.164;2024-03-23T06:37:10;10.18;;;2.42;;
81912;SDS011;71377;50.698;7.164;2024-03-23T06:39:36;5.43;;;1.65;;
81912;SDS011;71377;50.698;7.164;2024-03-23T06:42:02;5.38;;;2.10;;
81912;SDS011;71377;50.698;7.164;2024-03-23T06:44:28;6.35;;;2.08;;
81912;SDS011;71377;50.698;7.164;2024-03-23T06:46:54;7.65;;;2.28;;
81912;SDS011;71377;50.698;7.164;2024-03-23T06:49:20;7.40;;;2.20;;
81912;SDS011;71377;50.698;7.164;2024-03-23T06:51:45;5.43;;;2.05;;
81912;SDS011;71377;50.698;7.164;2024-03-23T06:54:11;12.10;;;2.28;;
81912;SDS011;71377;50.698;7.164;2024-03-23T06:56:40;8.63;;;2.80;;
81912;SDS011;71377;50.698;7.164;2024-03-23T06:59:06;7.85;;;2.17;;
81912;SDS011;71377;50.698;7.164;2024-03-23T07:01:31;7.30;;;2.15;;
81912;SDS011;71377;50.698;7.164;2024-03-23T07:03:57;9.25;;;2.22;;
81912;SDS011;71377;50.698;7.164;2024-03-23T07:06:22;8.50;;;2.50;;
81912;SDS011;71377;50.698;7.164;2024-03-23T07:08:48;12.23;;;2.50;;
81912;SDS011;71377;50.698;7.164;2024-03-23T07:11:23;7.13;;;2.63;;
81912;SDS011;71377;50.698;7.164;2024-03-23T07:13:49;8.98;;;2.58;;
81912;SDS011;71377;50.698;7.164;2024-03-23T07:16:15;7.05;;;2.60;;
81912;SDS011;71377;50.698;7.164;2024-03-23T07:18:41;11.35;;;2.65;;
81912;SDS011;71377;50.698;7.164;2024-03-23T07:21:07;11.63;;;3.00;;
81912;SDS011;71377;50.698;7.164;2024-03-23T07:23:33;13.60;;;3.30;;
81912;SDS011;71377;50.698;7.164;2024-03-23T07:25:59;9.18;;;3.63;;
81912;SDS011;71377;50.698;7.164;2024-03-23T07:28:26;8.73;;;3.00;;
81912;SDS011;71377;50.698;7.164;2024-03-23T07:31:02;9.13;;;3.28;;
81912;SDS011;71377;50.698;7.164;2024-03-23T07:33:27;7.50;;;2.90;;
81912;SDS011;71377;50.698;7.164;2024-03-23T07:35:53;8.73;;;2.70;;
81912;SDS011;71377;50.698;7.164;2024-03-23T07:38:19;9.52;;;3.00;;
81912;SDS011;71377;50.698;7.164;2024-03-23T07:40:44;11.95;;;3.63;;
81912;SDS011;71377;50.698;7.164;2024-03-23T07:43:10;9.13;;;3.50;;
81912;SDS011;71377;50.698;7.164;2024-03-23T07:45:35;9.77;;;3.75;;
81912;SDS011;71377;50.698;7.164;2024-03-23T07:48:03;12.30;;;3.80;;
81912;SDS011;71377;50.698;7.164;2024-03-23T07:50:29;13.13;;;4.10;;
81912;SDS011;71377;50.698;7.164;2024-03-23T07:52:54;8.32;;;4.00;;
81912;SDS011;71377;50.698;7.164;2024-03-23T07:55:22;11.60;;;3.88;;
81912;SDS011;71377;50.698;7.164;2024-03-23T07:57:47;8.43;;;3.13;;
81912;SDS011;71377;50.698;7.164;2024-03-23T08:00:13;9.75;;;3.95;;
81912;SDS011;71377;50.698;7.164;2024-03-23T08:02:39;12.55;;;4.10;;
81912;SDS011;71377;50.698;7.164;2024-03-23T08:05:04;11.52;;;4.18;;
81912;SDS011;71377;50.698;7.164;2024-03-23T08:07:31;11.90;;;4.10;;
81912;SDS011;71377;50.698;7.164;2024-03-23T08:09:56;7.85;;;4.40;;
81912;SDS011;71377;50.698;7.164;2024-03-23T08:12:22;12.43;;;4.30;;
81912;SDS011;71377;50.698;7.164;2024-03-23T08:14:47;11.60;;;4.43;;
81912;SDS011;71377;50.698;7.164;2024-03-23T08:17:13;10.15;;;4.38;;
81912;SDS011;71377;50.698;7.164;2024-03-23T08:19:38;8.50;;;3.03;;
81912;SDS011;71377;50.698;7.164;2024-03-23T08:22:04;5.32;;;1.90;;
81912;SDS011;71377;50.698;7.164;2024-03-23T08:24:29;4.30;;;1.65;;
81912;SDS011;71377;50.698;7.164;2024-03-23T08:26:55;4.20;;;1.70;;
81912;SDS011;71377;50.698;7.164;2024-03-23T08:29:21;2.97;;;1.63;;
81912;SDS011;71377;50.698;7.164;2024-03-23T08:31:46;6.43;;;1.80;;
81912;SDS011;71377;50.698;7.164;2024-03-23T08:34:12;4.20;;;1.67;;
81912;SDS011;71377;50.698;7.164;2024-03-23T08:36:37;9.52;;;2.13;;
81912;SDS011;71377;50.698;7.164;2024-03-23T08:39:03;5.63;;;1.88;;
81912;SDS011;71377;50.698;7.164;2024-03-23T08:41:28;4.03;;;1.40;;
81912;SDS011;71377;50.698;7.164;2024-03-23T08:43:54;9.13;;;2.08;;
81912;SDS011;71377;50.698;7.164;2024-03-23T08:46:19;4.93;;;2.20;;
81912;SDS011;71377;50.698;7.164;2024-03-23T08:48:45;6.35;;;2.03;;
81912;SDS011;71377;50.698;7.164;2024-03-23T08:51:14;8.48;;;2.15;;
81912;SDS011;71377;50.698;7.164;2024-03-23T08:53:41;5.60;;;2.55;;
81912;SDS011;71377;50.698;7.164;2024-03-23T08:56:08;5.35;;;1.95;;
81912;SDS011;71377;50.698;7.164;2024-03-23T08:58:35;8.20;;;2.47;;
81912;SDS011;71377;50.698;7.164;2024-03-23T09:01:11;7.53;;;2.58;;
81912;SDS011;71377;50.698;7.164;2024-03-23T09:03:40;7.18;;;3.03;;
81912;SDS011;71377;50.698;7.164;2024-03-23T09:06:07;6.32;;;2.67;;
81912;SDS011;71377;50.698;7.164;2024-03-23T09:08:36;12.63;;;3.70;;
81912;SDS011;71377;50.698;7.164;2024-03-23T09:11:06;9.25;;;4.40;;
81912;SDS011;71377;50.698;7.164;2024-03-23T09:13:33;10.90;;;4.00;;
81912;SDS011;71377;50.698;7.164;2024-03-23T09:15:59;10.02;;;4.22;;
81912;SDS011;71377;50.698;7.164;2024-03-23T09:18:25;13.63;;;4.80;;
81912;SDS011;71377;50.698;7.164;2024-03-23T09:20:50;12.43;;;4.68;;
81912;SDS011;71377;50.698;7.164;2024-03-23T09:23:16;11.50;;;4.78;;
81912;SDS011;71377;50.698;7.164;2024-03-23T09:25:41;15.15;;;4.85;;
81912;SDS011;71377;50.698;7.164;2024-03-23T09:28:07;14.27;;;4.55;;
81912;SDS011;71377;50.698;7.164;2024-03-23T09:30:36;11.57;;;4.35;;
81912;SDS011;71377;50.698;7.164;2024-03-23T09:33:07;10.98;;;4.22;;
81912;SDS011;71377;50.698;7.164;2024-03-23T09:35:36;11.05;;;4.30;;
81912;SDS011;71377;50.698;7.164;2024-03-23T09:38:06;14.40;;;4.68;;
81912;SDS011;71377;50.698;7.164;2024-03-23T09:40:35;10.73;;;3.42;;
81912;SDS011;71377;50.698;7.164;2024-03-23T09:43:06;10.05;;;2.83;;
81912;SDS011;71377;50.698;7.164;2024-03-23T09:45:32;6.75;;;2.92;;
81912;SDS011;71377;50.698;7.164;2024-03-23T09:48:01;8.48;;;3.10;;
81912;SDS011;71377;50.698;7.164;2024-03-23T09:50:27;6.53;;;1.98;;
81912;SDS011;71377;50.698;7.164;2024-03-23T09:52:52;9.63;;;2.38;;
81912;SDS011;71377;50.698;7.164;2024-03-23T09:55:18;9.95;;;2.38;;
81912;SDS011;71377;50.698;7.164;2024-03-23T09:57:43;6.45;;;1.90;;
81912;SDS011;71377;50.698;7.164;2024-03-23T10:00:09;8.25;;;2.20;;
81912;SDS011;71377;50.698;7.164;2024-03-23T10:02:37;7.28;;;2.13;;
81912;SDS011;71377;50.698;7.164;2024-03-23T10:05:03;5.85;;;2.13;;
81912;SDS011;71377;50.698;7.164;2024-03-23T10:07:29;5.45;;;1.92;;
81912;SDS011;71377;50.698;7.164;2024-03-23T10:09:55;4.00;;;1.95;;
81912;SDS011;71377;50.698;7.164;2024-03-23T10:12:22;8.30;;;2.08;;
81912;SDS011;71377;50.698;7.164;2024-03-23T10:14:48;6.80;;;2.28;;
81912;SDS011;71377;50.698;7.164;2024-03-23T10:17:18;7.10;;;2.10;;
81912;SDS011;71377;50.698;7.164;2024-03-23T10:19:49;6.32;;;2.38;;
81912;SDS011;71377;50.698;7.164;2024-03-23T10:22:20;6.68;;;1.85;;
81912;SDS011;71377;50.698;7.164;2024-03-23T10:24:47;6.88;;;2.08;;
81912;SDS011;71377;50.698;7.164;2024-03-23T10:27:16;5.72;;;2.28;;
81912;SDS011;71377;50.698;7.164;2024-03-23T10:29:46;8.07;;;2.20;;
81912;SDS011;71377;50.698;7.164;2024-03-23T10:32:12;5.85;;;2.13;;
81912;SDS011;71377;50.698;7.164;2024-03-23T10:34:39;6.45;;;2.05;;
81912;SDS011;71377;50.698;7.164;2024-03-23T10:37:05;4.63;;;1.73;;
81912;SDS011;71377;50.698;7.164;2024-03-23T10:39:35;3.88;;;1.48;;
81912;SDS011;71377;50.698;7.164;2024-03-23T10:42:02;3.85;;;1.42;;
81912;SDS011;71377;50.698;7.164;2024-03-23T10:44:36;2.58;;;1.33;;
81912;SDS011;71377;50.698;7.164;2024-03-23T10:47:02;2.38;;;1.13;;
81912;SDS011;71377;50.698;7.164;2024-03-23T10:49:28;0.60;;;0.60;;
81912;SDS011;71377;50.698;7.164;2024-03-23T10:52:01;1.25;;;0.70;;
81912;SDS011;71377;50.698;7.164;2024-03-23T10:54:32;1.83;;;0.80;;
81912;SDS011;71377;50.698;7.164;2024-03-23T10:57:06;2.47;;;0.85;;
81912;SDS011;71377;50.698;7.164;2024-03-23T10:59:39;0.65;;;0.60;;
81912;SDS011;71377;50.698;7.164;2024-03-23T11:02:05;0.70;;;0.68;;
81912;SDS011;71377;50.698;7.164;2024-03-23T11:04:33;1.15;;;0.90;;
81912;SDS011;71377;50.698;7.164;2024-03-23T11:07:01;1.45;;;0.88;;
81912;SDS011;71377;50.698;7.164;2024-03-23T11:14:48;0.68;;;0.60;;
81912;SDS011;71377;50.698;7.164;2024-03-23T11:17:19;0.88;;;0.80;;
81912;SDS011;71377;50.698;7.164;2024-03-23T11:19:52;1.50;;;0.90;;
81912;SDS011;71377;50.698;7.164;2024-03-23T11:22:37;2.67;;;0.85;;
81912;SDS011;71377;50.698;7.164;2024-03-23T11:27:41;3.35;;;1.20;;
81912;SDS011;71377;50.698;7.164;2024-03-23T11:32:40;6.40;;;1.80;;
81912;SDS011;71377;50.698;7.164;2024-03-23T11:35:07;3.78;;;1.70;;
81912;SDS011;71377;50.698;7.164;2024-03-23T11:37:35;2.90;;;1.33;;
81912;SDS011;71377;50.698;7.164;2024-03-23T11:40:16;4.55;;;1.10;;
81912;SDS011;71377;50.698;7.164;2024-03-23T11:42:44;2.17;;;1.23;;
81912;SDS011;71377;50.698;7.164;2024-03-23T11:45:10;1.67;;;1.00;;
81912;SDS011;71377;50.698;7.164;2024-03-23T11:47:36;5.50;;;1.33;;
81912;SDS011;71377;50.698;7.164;2024-03-23T11:50:02;2.35;;;1.05;;
81912;SDS011;71377;50.698;7.164;2024-03-23T11:52:28;1.73;;;1.13;;
81912;SDS011;71377;50.698;7.164;2024-03-23T11:55:02;1.88;;;1.20;;
81912;SDS011;71377;50.698;7.164;2024-03-23T11:57:29;4.90;;;1.40;;
81912;SDS011;71377;50.698;7.164;2024-03-23T11:59:55;3.40;;;1.50;;
81912;SDS011;71377;50.698;7.164;2024-03-23T12:02:20;4.70;;;1.52;;
81912;SDS011;71377;50.698;7.164;2024-03-23T12:04:46;3.58;;;1.35;;
81912;SDS011;71377;50.698;7.164;2024-03-23T12:07:18;4.65;;;2.05;;
81912;SDS011;71377;50.698;7.164;2024-03-23T12:09:46;2.92;;;1.42;;
81912;SDS011;71377;50.698;7.164;2024-03-23T12:12:15;4.22;;;1.80;;
81912;SDS011;71377;50.698;7.164;2024-03-23T12:14:45;4.13;;;2.00;;
81912;SDS011;71377;50.698;7.164;2024-03-23T12:17:27;3.08;;;1.88;;
81912;SDS011;71377;50.698;7.164;2024-03-23T12:19:52;3.38;;;1.83;;
81912;SDS011;71377;50.698;7.164;2024-03-23T12:22:21;6.70;;;1.80;;
81912;SDS011;71377;50.698;7.164;2024-03-23T12:24:47;6.85;;;2.50;;
81912;SDS011;71377;50.698;7.164;2024-03-23T12:27:14;5.85;;;2.30;;
81912;SDS011;71377;50.698;7.164;2024-03-23T12:29:40;6.43;;;2.08;;
81912;SDS011;71377;50.698;7.164;2024-03-23T12:32:07;3.78;;;1.90;;
81912;SDS011;71377;50.698;7.164;2024-03-23T12:34:33;2.75;;;1.70;;
81912;SDS011;71377;50.698;7.164;2024-03-23T12:36:58;3.72;;;1.90;;
81912;SDS011;71377;50.698;7.164;2024-03-23T12:39:24;4.78;;;2.08;;
81912;SDS011;71377;50.698;7.164;2024-03-23T12:41:49;2.78;;;1.67;;
81912;SDS011;71377;50.698;7.164;2024-03-23T12:44:15;5.43;;;2.03;;
81912;SDS011;71377;50.698;7.164;2024-03-23T12:46:41;4.95;;;1.88;;
81912;SDS011;71377;50.698;7.164;2024-03-23T12:49:07;3.50;;;1.85;;
81912;SDS011;71377;50.698;7.164;2024-03-23T12:51:32;4.07;;;1.98;;
81912;SDS011;71377;50.698;7.164;2024-03-23T12:53:58;8.48;;;2.20;;
81912;SDS011;71377;50.698;7.164;2024-03-23T12:56:24;6.47;;;2.28;;
81912;SDS011;71377;50.698;7.164;2024-03-23T12:58:49;2.58;;;1.48;;
81912;SDS011;71377;50.698;7.164;2024-03-23T13:01:17;4.75;;;1.33;;
81912;SDS011;71377;50.698;7.164;2024-03-23T13:03:42;1.23;;;1.13;;
81912;SDS011;71377;50.698;7.164;2024-03-23T13:06:10;4.55;;;0.88;;
81912;SDS011;71377;50.698;7.164;2024-03-23T13:08:35;2.00;;;1.13;;
81912;SDS011;71377;50.698;7.164;2024-03-23T13:11:01;2.33;;;1.10;;
81912;SDS011;71377;50.698;7.164;2024-03-23T13:13:27;2.75;;;1.40;;
81912;SDS011;71377;50.698;7.164;2024-03-23T13:15:56;3.78;;;1.50;;
81912;SDS011;71377;50.698;7.164;2024-03-23T13:18:21;2.58;;;1.40;;
81912;SDS011;71377;50.698;7.164;2024-03-23T13:20:47;2.92;;;1.33;;
81912;SDS011;71377;50.698;7.164;2024-03-23T13:23:12;3.33;;;1.17;;
81912;SDS011;71377;50.698;7.164;2024-03-23T13:25:38;1.05;;;0.90;;
81912;SDS011;71377;50.698;7.164;2024-03-23T13:28:03;2.10;;;1.00;;
81912;SDS011;71377;50.698;7.164;2024-03-23T13:30:29;2.13;;;1.10;;
81912;SDS011;71377;50.698;7.164;2024-03-23T13:32:55;8.38;;;1.08;;
81912;SDS011;71377;50.698;7.164;2024-03-23T13:35:21;2.50;;;1.00;;
81912;SDS011;71377;50.698;7.164;2024-03-23T13:37:46;3.55;;;1.25;;
81912;SDS011;71377;50.698;7.164;2024-03-23T13:40:12;7.32;;;1.13;;
81912;SDS011;71377;50.698;7.164;2024-03-23T13:42:37;3.20;;;1.10;;
81912;SDS011;71377;50.698;7.164;2024-03-23T13:45:03;2.55;;;1.10;;
81912;SDS011;71377;50.698;7.164;2024-03-23T13:47:29;4.50;;;1.10;;
81912;SDS011;71377;50.698;7.164;2024-03-23T13:49:55;1.27;;;1.13;;
81912;SDS011;71377;50.698;7.164;2024-03-23T13:52:21;1.70;;;1.00;;
81912;SDS011;71377;50.698;7.164;2024-03-23T13:54:48;3.92;;;0.90;;
81912;SDS011;71377;50.698;7.164;2024-03-23T13:57:14;4.85;;;1.08;;
81912;SDS011;71377;50.698;7.164;2024-03-23T13:59:39;3.45;;;0.80;;
81912;SDS011;71377;50.698;7.164;2024-03-23T14:02:05;2.72;;;1.10;;
81912;SDS011;71377;50.698;7.164;2024-03-23T14:04:30;2.15;;;1.30;;
81912;SDS011;71377;50.698;7.164;2024-03-23T14:06:56;2.47;;;0.90;;
81912;SDS011;71377;50.698;7.164;2024-03-23T14:09:21;2.65;;;1.00;;
81912;SDS011;71377;50.698;7.164;2024-03-23T14:11:50;3.50;;;1.10;;
81912;SDS011;71377;50.698;7.164;2024-03-23T14:14:17;3.15;;;1.15;;
81912;SDS011;71377;50.698;7.164;2024-03-23T14:16:43;1.55;;;1.00;;
81912;SDS011;71377;50.698;7.164;2024-03-23T14:19:09;4.60;;;1.40;;
81912;SDS011;71377;50.698;7.164;2024-03-23T14:21:34;4.00;;;1.48;;
81912;SDS011;71377;50.698;7.164;2024-03-23T14:24:00;2.83;;;1.40;;
81912;SDS011;71377;50.698;7.164;2024-03-23T14:26:26;6.38;;;1.40;;
81912;SDS011;71377;50.698;7.164;2024-03-23T14:28:52;4.22;;;1.92;;
81912;SDS011;71377;50.698;7.164;2024-03-23T14:31:18;3.10;;;1.38;;
81912;SDS011;71377;50.698;7.164;2024-03-23T14:33:44;3.35;;;1.70;;
81912;SDS011;71377;50.698;7.164;2024-03-23T14:36:13;4.30;;;1.70;;
81912;SDS011;71377;50.698;7.164;2024-03-23T14:38:39;3.60;;;1.50;;
81912;SDS011;71377;50.698;7.164;2024-03-23T14:41:05;5.00;;;1.67;;
81912;SDS011;71377;50.698;7.164;2024-03-23T14:43:31;2.30;;;1.30;;
81912;SDS011;71377;50.698;7.164;2024-03-23T14:46:07;3.55;;;1.30;;
81912;SDS011;71377;50.698;7.164;2024-03-23T14:48:33;3.80;;;1.35;;
81912;SDS011;71377;50.698;7.164;2024-03-23T14:51:00;5.32;;;2.85;;
81912;SDS011;71377;50.698;7.164;2024-03-23T14:53:26;1.50;;;1.02;;
81912;SDS011;71377;50.698;7.164;2024-03-23T14:55:55;1.95;;;0.90;;
81912;SDS011;71377;50.698;7.164;2024-03-23T14:58:21;2.83;;;1.20;;
81912;SDS011;71377;50.698;7.164;2024-03-23T15:00:48;5.50;;;1.25;;
81912;SDS011;71377;50.698;7.164;2024-03-23T15:03:14;1.30;;;1.20;;
81912;SDS011;71377;50.698;7.164;2024-03-23T15:05:39;6.15;;;1.38;;
81912;SDS011;71377;50.698;7.164;2024-03-23T15:08:05;2.88;;;1.60;;
81912;SDS011;71377;50.698;7.164;2024-03-23T15:10:32;2.15;;;1.27;;
81912;SDS011;71377;50.698;7.164;2024-03-23T15:12:58;2.88;;;1.30;;
81912;SDS011;71377;50.698;7.164;2024-03-23T15:15:24;2.63;;;1.23;;
81912;SDS011;71377;50.698;7.164;2024-03-23T15:17:49;3.67;;;1.33;;
81912;SDS011;71377;50.698;7.164;2024-03-23T15:20:15;2.22;;;1.20;;
81912;SDS011;71377;50.698;7.164;2024-03-23T15:22:41;1.50;;;1.15;;
81912;SDS011;71377;50.698;7.164;2024-03-23T15:25:07;3.58;;;1.30;;
81912;SDS011;71377;50.698;7.164;2024-03-23T15:27:33;1.98;;;1.00;;
81912;SDS011;71377;50.698;7.164;2024-03-23T15:29:59;1.15;;;1.08;;
81912;SDS011;71377;50.698;7.164;2024-03-23T15:32:24;3.53;;;1.55;;
81912;SDS011;71377;50.698;7.164;2024-03-23T15:34:50;1.17;;;0.98;;
81912;SDS011;71377;50.698;7.164;2024-03-23T15:37:17;1.00;;;0.90;;
81912;SDS011;71377;50.698;7.164;2024-03-23T15:39:43;1.10;;;1.00;;
81912;SDS011;71377;50.698;7.164;2024-03-23T15:42:08;1.02;;;0.70;;